Time;durP1;ratioP1;P1;durP2;ratioP2;P2;SDS_P1;SDS_P2;PMS_P1;PMS_P2;Temp;Humidity;BMP_temperature;BMP_pressure;BME280_temperature;BME280_humidity;BME280_pressure;Samples;Min_cycle;Max_cycle;Signal;HPM_P1;HPM_P2
2023/08/31 00:00:10;;;;;;;8.23;5.63;;;25.00;48.50;;;;;;5054073;27;87650;-58
2023/08/31 00:02:40;;;;;;;5.67;4.87;;;25.00;48.50;;;;;;5059401;27;89849;-58
2023/08/31 00:05:09;;;;;;;11.27;5.90;;;25.00;48.50;;;;;;5042454;28;88114;-58
2023/08/31 00:07:37;;;;;;;5.47;4.43;;;25.00;48.50;;;;;;5042236;28;88903;-58
2023/08/31 00:10:09;;;;;;;7.80;5.43;;;25.00;48.50;;;;;;5042272;28;87707;-58
2023/08/31 00:12:38;;;;;;;7.97;5.10;;;25.00;48.50;;;;;;5042269;28;89632;-58
2023/08/31 00:15:08;;;;;;;8.23;5.30;;;25.00;48.60;;;;;;5042694;27;89016;-58
2023/08/31 00:17:37;;;;;;;8.77;5.37;;;25.00;48.60;;;;;;5042267;27;89107;-58
2023/08/31 00:20:08;;;;;;;4.10;3.33;;;25.00;48.50;;;;;;5047840;27;87744;-58
2023/08/31 00:22:36;;;;;;;9.07;4.40;;;25.00;48.60;;;;;;5061432;27;89782;-59
2023/08/31 00:25:05;;;;;;;6.03;3.80;;;25.00;48.60;;;;;;5062262;27;89108;-59
2023/08/31 00:27:33;;;;;;;7.77;4.53;;;25.00;48.60;;;;;;5061355;27;88832;-59
2023/08/31 00:30:03;;;;;;;10.03;4.47;;;25.00;49.20;;;;;;5061957;27;87187;-59
2023/08/31 00:32:33;;;;;;;5.23;3.70;;;25.00;48.60;;;;;;5061042;27;89601;-59
2023/08/31 00:35:03;;;;;;;4.57;3.13;;;25.00;48.60;;;;;;5061681;27;89212;-59
2023/08/31 00:37:31;;;;;;;6.30;3.63;;;25.00;48.60;;;;;;5051007;27;87495;-59
2023/08/31 00:39:59;;;;;;;3.63;3.03;;;25.00;48.60;;;;;;5041667;28;87623;-59
2023/08/31 00:42:29;;;;;;;7.33;3.90;;;25.00;48.60;;;;;;5041549;28;89692;-59
2023/08/31 00:44:57;;;;;;;4.40;3.20;;;25.00;48.70;;;;;;5041446;28;88043;-59
2023/08/31 00:47:27;;;;;;;4.20;2.80;;;25.00;48.60;;;;;;5041069;27;89738;-59
2023/08/31 00:49:55;;;;;;;3.07;2.30;;;24.90;48.60;;;;;;5040748;27;87583;-59
2023/08/31 00:52:24;;;;;;;5.07;3.27;;;24.90;48.70;;;;;;5041205;28;89800;-59
2023/08/31 00:54:52;;;;;;;4.30;3.10;;;24.90;48.60;;;;;;5054358;27;88877;-59
2023/08/31 00:57:20;;;;;;;3.63;2.23;;;24.90;48.60;;;;;;5061504;27;88802;-59
2023/08/31 00:59:48;;;;;;;3.33;2.40;;;24.90;48.60;;;;;;5062010;27;87622;-59
2023/08/31 01:02:21;;;;;;;3.87;2.23;;;24.90;48.70;;;;;;5061753;27;89643;-59
2023/08/31 01:04:56;;;;;;;3.50;3.20;;;24.90;48.60;;;;;;5058249;27;89450;-59
2023/08/31 01:07:30;;;;;;;2.70;2.37;;;24.90;48.70;;;;;;5040936;28;87827;-59
2023/08/31 01:10:04;;;;;;;4.80;2.13;;;24.90;48.60;;;;;;5061308;27;87976;-59
2023/08/31 01:12:36;;;;;;;4.37;2.60;;;24.90;48.70;;;;;;5045753;27;89686;-59
2023/08/31 01:15:07;;;;;;;2.47;1.70;;;24.90;48.70;;;;;;5053030;27;88124;-59
2023/08/31 01:17:37;;;;;;;3.23;1.70;;;24.90;48.70;;;;;;5053185;27;88925;-59
2023/08/31 01:20:09;;;;;;;2.67;1.70;;;24.90;48.70;;;;;;5055157;27;88789;-59
2023/08/31 01:22:41;;;;;;;2.57;1.70;;;24.90;48.70;;;;;;5048515;27;89899;-59
2023/08/31 01:25:10;;;;;;;2.03;1.83;;;24.90;48.70;;;;;;5059508;27;89123;-59
2023/08/31 01:27:38;;;;;;;1.90;1.63;;;24.90;48.70;;;;;;5057856;27;87979;-58
2023/08/31 01:30:07;;;;;;;2.93;1.97;;;24.80;48.60;;;;;;5039729;27;87487;-58
2023/08/31 01:32:36;;;;;;;3.40;2.00;;;24.90;48.70;;;;;;5053944;27;89682;-59
2023/08/31 01:35:05;;;;;;;3.17;1.90;;;24.80;48.60;;;;;;5060585;27;90130;-58
2023/08/31 01:37:37;;;;;;;2.77;1.90;;;24.80;48.60;;;;;;5045727;27;89837;-58
2023/08/31 01:40:07;;;;;;;1.73;1.57;;;24.80;48.70;;;;;;5042107;27;88432;-58
2023/08/31 01:42:37;;;;;;;2.47;1.50;;;24.80;48.70;;;;;;5066865;27;89605;-58
2023/08/31 01:45:06;;;;;;;4.90;1.37;;;24.80;48.70;;;;;;5041035;28;88974;-59
2023/08/31 01:47:35;;;;;;;2.17;1.50;;;24.80;48.70;;;;;;5053598;27;88756;-58
2023/08/31 01:50:03;;;;;;;2.23;1.43;;;24.80;49.30;;;;;;5042054;27;89390;-58
2023/08/31 01:52:31;;;;;;;1.17;1.07;;;24.80;48.70;;;;;;5060744;27;89682;-59
2023/08/31 01:54:59;;;;;;;1.40;1.13;;;24.80;48.70;;;;;;5060877;27;88029;-58
2023/08/31 01:57:27;;;;;;;2.63;1.80;;;24.80;49.30;;;;;;5053910;27;88846;-59
2023/08/31 01:59:57;;;;;;;1.33;1.13;;;24.80;48.70;;;;;;5059737;27;87879;-58
2023/08/31 02:02:25;;;;;;;1.87;1.13;;;24.80;48.70;;;;;;5045940;27;89603;-59
2023/08/31 02:04:53;;;;;;;2.30;1.37;;;24.90;48.80;;;;;;5039577;27;89094;-58
2023/08/31 02:07:21;;;;;;;1.70;1.10;;;24.80;48.70;;;;;;5045856;27;87690;-58
2023/08/31 02:09:49;;;;;;;2.63;1.07;;;24.80;48.70;;;;;;5042141;27;87496;-58
2023/08/31 02:12:17;;;;;;;1.07;1.00;;;24.80;48.70;;;;;;5048089;27;89623;-58
2023/08/31 02:14:45;;;;;;;2.40;1.50;;;24.80;48.70;;;;;;5055711;27;89359;-58
2023/08/31 02:17:15;;;;;;;0.97;0.80;;;24.80;48.70;;;;;;5039434;27;87715;-59
2023/08/31 02:19:43;;;;;;;2.00;1.30;;;24.80;48.70;;;;;;5041072;28;87701;-58
2023/08/31 02:22:11;;;;;;;1.33;1.10;;;24.80;48.70;;;;;;5047557;27;88532;-58
2023/08/31 02:24:39;;;;;;;3.13;1.10;;;24.80;48.70;;;;;;5054182;27;89799;-58
2023/08/31 02:27:07;;;;;;;0.83;0.70;;;24.80;48.80;;;;;;5048828;27;89769;-58
2023/08/31 02:29:35;;;;;;;1.50;1.10;;;24.80;48.80;;;;;;5050925;27;87653;-58
2023/08/31 02:32:05;;;;;;;1.40;0.80;;;24.80;48.80;;;;;;5049465;27;89699;-58
2023/08/31 02:34:34;;;;;;;1.43;1.10;;;24.80;48.80;;;;;;5042478;27;89169;-58
2023/08/31 02:37:02;;;;;;;1.63;1.00;;;24.80;48.80;;;;;;5051385;27;88804;-58
2023/08/31 02:39:31;;;;;;;1.20;0.63;;;24.70;48.80;;;;;;5051315;27;87642;-58
2023/08/31 02:41:59;;;;;;;0.60;0.60;;;24.70;48.80;;;;;;5059937;27;89829;-58
2023/08/31 02:44:27;;;;;;;1.30;1.00;;;24.70;48.80;;;;;;5063913;27;89013;-58
2023/08/31 02:46:55;;;;;;;0.87;0.87;;;24.70;48.80;;;;;;5058924;27;88867;-58
2023/08/31 02:49:24;;;;;;;1.00;0.60;;;24.70;48.80;;;;;;5050295;27;88101;-58
2023/08/31 02:51:53;;;;;;;0.90;0.80;;;24.70;48.80;;;;;;5060630;27;89748;-58
2023/08/31 02:54:21;;;;;;;2.00;0.90;;;24.70;48.80;;;;;;5061027;27;89035;-58
2023/08/31 02:56:50;;;;;;;1.83;0.90;;;24.70;48.80;;;;;;5061043;27;88649;-58
2023/08/31 02:59:18;;;;;;;1.07;0.93;;;24.70;48.80;;;;;;5060119;27;87650;-59
2023/08/31 03:01:47;;;;;;;1.10;0.83;;;24.70;48.80;;;;;;5058264;27;89760;-58
2023/08/31 03:04:17;;;;;;;0.67;0.47;;;24.70;48.90;;;;;;5052054;27;88021;-58
2023/08/31 03:06:45;;;;;;;3.50;0.90;;;24.70;48.80;;;;;;5040333;28;88954;-58
2023/08/31 03:09:15;;;;;;;1.03;0.80;;;24.70;48.80;;;;;;5041790;27;87652;-58
2023/08/31 03:11:43;;;;;;;0.40;0.40;;;24.60;48.70;;;;;;5065086;27;88570;-58
2023/08/31 03:14:11;;;;;;;0.60;0.60;;;24.70;48.90;;;;;;5057321;27;90064;-58
2023/08/31 03:16:39;;;;;;;0.83;0.63;;;24.60;48.80;;;;;;5059788;27;88843;-58
2023/08/31 03:19:07;;;;;;;3.63;0.40;;;24.60;48.80;;;;;;5042744;27;87670;-58
2023/08/31 03:21:35;;;;;;;1.17;0.80;;;24.60;48.80;;;;;;5046271;27;88465;-58
2023/08/31 03:24:04;;;;;;;0.70;0.70;;;24.60;48.80;;;;;;5060017;27;88922;-58
2023/08/31 03:26:34;;;;;;;2.23;0.57;;;24.60;48.80;;;;;;5057855;27;87515;-58
2023/08/31 03:29:02;;;;;;;0.90;0.60;;;24.60;48.80;;;;;;5055731;27;87467;-58
2023/08/31 03:31:31;;;;;;;0.73;0.70;;;24.60;48.80;;;;;;5039718;27;89913;-58
2023/08/31 03:33:59;;;;;;;1.27;0.77;;;24.60;48.80;;;;;;5053072;27;89277;-58
2023/08/31 03:36:27;;;;;;;1.07;0.57;;;24.60;48.80;;;;;;5049840;27;89009;-58
2023/08/31 03:38:55;;;;;;;2.53;0.67;;;24.60;48.80;;;;;;5052438;27;88726;-58
2023/08/31 03:41:24;;;;;;;1.40;0.70;;;24.60;48.80;;;;;;5049603;27;89174;-58
2023/08/31 03:43:53;;;;;;;0.63;0.60;;;24.60;49.50;;;;;;5038620;27;89037;-58
2023/08/31 03:46:21;;;;;;;0.87;0.40;;;24.60;49.50;;;;;;5050338;27;87791;-58
2023/08/31 03:48:49;;;;;;;0.50;0.50;;;24.60;48.80;;;;;;5057488;27;87692;-58
2023/08/31 03:51:17;;;;;;;0.73;0.67;;;24.60;48.80;;;;;;5047039;27;89701;-58
2023/08/31 03:53:45;;;;;;;0.57;0.57;;;24.60;48.80;;;;;;5053838;27;88032;-58
2023/08/31 03:56:13;;;;;;;0.97;0.40;;;24.60;48.80;;;;;;5055691;27;88844;-58
2023/08/31 03:58:42;;;;;;;0.50;0.50;;;24.60;48.80;;;;;;5062864;27;87467;-58
2023/08/31 04:01:12;;;;;;;1.23;1.10;;;24.60;48.80;;;;;;5056556;27;89604;-58
2023/08/31 04:03:40;;;;;;;0.57;0.57;;;24.60;48.80;;;;;;5070052;27;90258;-58
2023/08/31 04:06:09;;;;;;;0.30;0.30;;;24.60;48.80;;;;;;5057018;27;89985;-58
2023/08/31 04:08:37;;;;;;;1.03;0.30;;;24.60;48.80;;;;;;5058879;27;87761;-58
2023/08/31 04:11:05;;;;;;;0.60;0.57;;;24.60;48.80;;;;;;5054736;27;89798;-58
2023/08/31 04:13:33;;;;;;;0.97;0.60;;;24.60;48.80;;;;;;5036902;27;88143;-58
2023/08/31 04:16:01;;;;;;;1.00;0.40;;;24.60;48.90;;;;;;5037848;27;88937;-58
2023/08/31 04:18:30;;;;;;;0.83;0.67;;;24.60;49.60;;;;;;5047020;27;87716;-58
2023/08/31 04:21:03;;;;;;;0.40;0.40;;;24.60;48.90;;;;;;5052792;27;88735;-58
2023/08/31 04:23:31;;;;;;;1.53;0.60;;;24.60;49.60;;;;;;5056143;27;89059;-59
2023/08/31 04:25:59;;;;;;;0.43;0.43;;;24.50;49.50;;;;;;5056629;27;89396;-58
2023/08/31 04:28:27;;;;;;;1.53;0.70;;;24.50;48.90;;;;;;5041964;27;87940;-58
2023/08/31 04:30:55;;;;;;;0.30;0.30;;;24.60;48.90;;;;;;5044484;27;87733;-58
2023/08/31 04:33:23;;;;;;;0.87;0.60;;;24.50;48.90;;;;;;5040184;27;89116;-58
2023/08/31 04:35:52;;;;;;;0.93;0.50;;;24.50;48.90;;;;;;5040468;27;87322;-58
2023/08/31 04:38:20;;;;;;;0.60;0.43;;;24.50;48.90;;;;;;5040018;27;87651;-58
2023/08/31 04:40:48;;;;;;;0.67;0.50;;;24.50;48.90;;;;;;5054700;27;89649;-58
2023/08/31 04:43:16;;;;;;;1.60;0.57;;;24.50;48.90;;;;;;5060073;27;87967;-58
2023/08/31 04:45:44;;;;;;;1.10;0.40;;;24.50;48.80;;;;;;5058387;27;88883;-58
2023/08/31 04:48:14;;;;;;;0.53;0.40;;;24.50;48.80;;;;;;5040182;28;87703;-58
2023/08/31 04:50:42;;;;;;;0.47;0.47;;;24.50;48.90;;;;;;5040052;28;89673;-58
2023/08/31 04:53:11;;;;;;;1.70;0.50;;;24.50;48.90;;;;;;5039359;28;88934;-58
2023/08/31 04:55:40;;;;;;;2.13;0.50;;;24.50;48.90;;;;;;5039426;28;90048;-58
2023/08/31 04:58:08;;;;;;;0.47;0.43;;;24.50;48.90;;;;;;5047948;27;87725;-58
2023/08/31 05:00:36;;;;;;;1.20;0.33;;;24.50;48.90;;;;;;5059872;27;89310;-58
2023/08/31 05:03:05;;;;;;;0.40;0.40;;;24.50;48.90;;;;;;5012742;27;1209712;-58
2023/08/31 05:05:33;;;;;;;0.87;0.60;;;24.50;48.90;;;;;;5039960;28;87850;-58
2023/08/31 05:08:03;;;;;;;0.50;0.40;;;24.50;48.80;;;;;;5040657;28;87712;-58
2023/08/31 05:10:33;;;;;;;1.60;0.30;;;24.50;48.80;;;;;;5050419;27;88547;-58
2023/08/31 05:13:01;;;;;;;0.70;0.63;;;24.50;48.80;;;;;;5058859;27;89030;-58
2023/08/31 05:15:30;;;;;;;1.03;0.50;;;24.50;48.90;;;;;;5048095;27;88861;-58
2023/08/31 05:17:58;;;;;;;1.33;0.77;;;24.50;48.80;;;;;;5056298;27;87862;-58
2023/08/31 05:20:27;;;;;;;0.93;0.83;;;24.40;48.70;;;;;;5047189;27;89874;-58
2023/08/31 05:22:55;;;;;;;4.70;1.10;;;24.40;48.70;;;;;;5047902;27;89337;-58
2023/08/31 05:25:23;;;;;;;1.47;1.30;;;24.50;48.80;;;;;;5043564;27;88728;-58
2023/08/31 05:27:55;;;;;;;4.50;1.87;;;24.50;48.80;;;;;;5060589;27;87471;-58
2023/08/31 05:30:23;;;;;;;2.60;1.73;;;24.50;48.80;;;;;;5053277;27;88517;-58
2023/08/31 05:32:51;;;;;;;3.13;2.03;;;24.50;48.70;;;;;;5060102;27;89057;-58
2023/08/31 05:35:20;;;;;;;3.83;2.60;;;24.50;48.70;;;;;;5059661;27;87834;-59
2023/08/31 05:37:48;;;;;;;5.17;3.03;;;24.50;48.70;;;;;;5041180;27;87702;-58
2023/08/31 05:40:16;;;;;;;4.87;2.87;;;24.50;48.70;;;;;;5044351;27;89588;-58
2023/08/31 05:42:44;;;;;;;4.90;3.10;;;24.50;48.70;;;;;;5039907;27;88766;-58
2023/08/31 05:45:15;;;;;;;5.07;3.00;;;24.50;48.70;;;;;;5041197;28;89735;-58
2023/08/31 05:47:43;;;;;;;5.20;3.30;;;24.50;48.70;;;;;;5049701;27;87583;-58
2023/08/31 05:50:11;;;;;;;6.03;3.57;;;24.60;48.60;;;;;;5040479;27;88724;-58
2023/08/31 05:52:43;;;;;;;5.40;3.50;;;24.60;48.60;;;;;;5047877;27;89232;-58
2023/08/31 05:55:11;;;;;;;6.50;4.10;;;24.60;48.60;;;;;;5040537;27;88127;-58
2023/08/31 05:57:39;;;;;;;5.53;3.60;;;24.60;48.50;;;;;;5053276;27;87528;-59
2023/08/31 06:00:09;;;;;;;6.97;3.47;;;24.70;48.60;;;;;;5068170;27;89386;-58
2023/08/31 06:02:38;;;;;;;5.13;3.60;;;24.70;48.60;;;;;;5040360;27;87878;-58
2023/08/31 06:05:07;;;;;;;7.17;4.10;;;24.70;48.70;;;;;;5055559;27;88872;-58
2023/08/31 06:07:35;;;;;;;7.20;4.50;;;24.70;48.50;;;;;;5039601;27;87950;-58
2023/08/31 06:10:04;;;;;;;6.03;4.43;;;24.70;48.50;;;;;;5039738;27;89615;-58
2023/08/31 06:12:33;;;;;;;5.80;4.50;;;24.80;48.50;;;;;;5057464;27;88112;-58
2023/08/31 06:15:01;;;;;;;7.50;4.47;;;24.80;48.50;;;;;;5048814;27;88620;-58
2023/08/31 06:17:29;;;;;;;6.53;4.30;;;24.80;48.50;;;;;;5055939;27;87756;-58
2023/08/31 06:19:58;;;;;;;6.60;4.43;;;24.90;48.50;;;;;;5041267;27;89829;-58
2023/08/31 06:22:26;;;;;;;7.07;4.77;;;24.80;48.40;;;;;;5047725;27;88050;-58
2023/08/31 06:24:54;;;;;;;11.33;5.20;;;24.90;48.40;;;;;;5058925;27;88789;-58
2023/08/31 06:27:22;;;;;;;7.40;4.47;;;24.90;48.40;;;;;;5045086;27;87663;-58
2023/08/31 06:29:50;;;;;;;7.90;5.00;;;24.90;48.40;;;;;;5042395;27;89671;-58
2023/08/31 06:32:19;;;;;;;5.57;4.47;;;24.90;48.40;;;;;;5052548;27;90473;-58
2023/08/31 06:34:47;;;;;;;7.13;5.27;;;24.90;48.40;;;;;;5059412;27;89753;-58
2023/08/31 06:37:16;;;;;;;5.97;4.13;;;24.90;48.40;;;;;;5041903;27;88385;-58
2023/08/31 06:39:44;;;;;;;9.20;5.27;;;24.90;48.40;;;;;;5041344;27;88756;-58
2023/08/31 06:42:12;;;;;;;9.37;5.43;;;24.90;48.30;;;;;;5059462;27;87836;-58
2023/08/31 06:44:40;;;;;;;8.37;5.20;;;24.90;48.30;;;;;;5057856;27;87767;-58
2023/08/31 06:47:09;;;;;;;8.97;5.30;;;25.00;48.40;;;;;;5054728;27;87517;-58
2023/08/31 06:49:37;;;;;;;8.87;5.73;;;24.90;48.30;;;;;;5059715;27;88511;-58
2023/08/31 06:52:07;;;;;;;6.77;4.67;;;25.00;48.40;;;;;;5059303;27;88037;-58
2023/08/31 06:54:58;;;;;;;9.17;5.67;;;24.90;48.30;;;;;;5060030;27;87440;-58
2023/08/31 06:57:26;;;;;;;9.50;6.07;;;25.00;48.40;;;;;;5060132;27;87930;-58
2023/08/31 06:59:54;;;;;;;13.20;6.73;;;24.90;48.30;;;;;;5060051;27;89677;-58
2023/08/31 07:02:24;;;;;;;9.23;6.30;;;24.90;48.60;;;;;;5052238;27;89295;-57
2023/08/31 07:04:52;;;;;;;9.53;5.90;;;24.90;48.30;;;;;;5039452;28;88675;-58
2023/08/31 07:07:20;;;;;;;10.87;6.30;;;25.00;48.40;;;;;;5049292;27;87551;-58
2023/08/31 07:09:48;;;;;;;10.17;6.30;;;25.00;48.40;;;;;;5059997;27;89754;-58
2023/08/31 07:12:18;;;;;;;9.87;6.83;;;24.90;48.30;;;;;;5059465;27;89181;-58
2023/08/31 07:14:46;;;;;;;13.77;8.10;;;25.00;48.40;;;;;;5059917;27;88870;-58
2023/08/31 07:17:14;;;;;;;11.23;7.57;;;24.90;48.30;;;;;;5057985;27;87494;-58
2023/08/31 07:19:42;;;;;;;12.70;7.33;;;25.00;48.40;;;;;;5042697;27;89470;-58
2023/08/31 07:22:10;;;;;;;12.00;7.57;;;25.00;48.40;;;;;;5050118;27;88771;-58
2023/08/31 07:24:38;;;;;;;11.80;7.17;;;25.00;48.40;;;;;;5057484;27;89848;-58
2023/08/31 07:27:06;;;;;;;13.87;7.93;;;25.00;48.40;;;;;;5045337;27;87576;-58
2023/08/31 07:29:36;;;;;;;13.87;8.47;;;25.00;48.40;;;;;;5041333;27;89681;-58
2023/08/31 07:32:04;;;;;;;12.43;7.37;;;25.00;48.40;;;;;;5042797;27;89044;-58
2023/08/31 07:34:32;;;;;;;12.03;7.50;;;25.00;48.40;;;;;;5044667;27;89132;-58
2023/08/31 07:37:00;;;;;;;15.00;8.00;;;25.00;48.40;;;;;;5044326;27;87601;-58
2023/08/31 07:39:28;;;;;;;11.57;7.97;;;25.00;48.40;;;;;;5048656;27;89477;-58
2023/08/31 07:41:56;;;;;;;13.60;8.73;;;25.00;48.40;;;;;;5056040;27;89179;-58
2023/08/31 07:44:24;;;;;;;12.37;7.47;;;25.00;48.40;;;;;;5058979;27;88798;-58
2023/08/31 07:46:54;;;;;;;15.00;8.93;;;25.00;48.40;;;;;;5061858;27;87913;-58
2023/08/31 07:49:22;;;;;;;14.70;8.47;;;25.00;48.40;;;;;;5063081;27;88574;-58
2023/08/31 07:51:50;;;;;;;11.27;7.80;;;25.00;48.40;;;;;;5059455;27;88664;-58
2023/08/31 07:54:21;;;;;;;11.30;8.20;;;25.00;48.40;;;;;;5055471;27;87836;-58
2023/08/31 07:56:49;;;;;;;11.87;8.00;;;25.00;48.40;;;;;;5050765;27;87635;-58
2023/08/31 07:59:18;;;;;;;13.80;8.43;;;24.90;48.30;;;;;;5049415;27;88534;-58
2023/08/31 08:01:46;;;;;;;12.40;8.27;;;25.00;48.50;;;;;;5057021;27;89053;-58
2023/08/31 08:04:19;;;;;;;12.90;7.50;;;24.90;48.40;;;;;;5061239;27;87763;-58
2023/08/31 08:06:47;;;;;;;15.07;8.77;;;24.90;48.40;;;;;;5062337;27;87550;-58
2023/08/31 08:09:17;;;;;;;11.20;7.13;;;24.90;48.40;;;;;;5060822;27;89593;-58
2023/08/31 08:11:45;;;;;;;13.20;8.60;;;24.90;48.40;;;;;;5067043;27;89976;-58
2023/08/31 08:14:15;;;;;;;12.00;7.70;;;24.90;48.40;;;;;;5058204;27;89895;-58
2023/08/31 08:16:43;;;;;;;9.10;6.63;;;24.90;48.40;;;;;;5059203;27;87432;-58
2023/08/31 08:19:11;;;;;;;11.13;6.43;;;24.90;48.40;;;;;;5068323;27;88197;-58
2023/08/31 08:21:40;;;;;;;12.63;7.20;;;24.90;48.40;;;;;;5070311;27;88977;-57
2023/08/31 08:24:09;;;;;;;10.37;6.00;;;24.90;48.40;;;;;;5052547;27;88561;-58
2023/08/31 08:26:37;;;;;;;8.83;5.80;;;24.90;48.40;;;;;;5055781;27;87581;-58
2023/08/31 08:29:05;;;;;;;8.47;5.33;;;24.90;48.40;;;;;;5048025;27;88455;-58
2023/08/31 08:31:33;;;;;;;9.03;5.63;;;24.90;48.40;;;;;;5041352;28;88869;-58
2023/08/31 08:34:03;;;;;;;6.33;5.33;;;24.90;48.40;;;;;;5041620;28;88952;-58
2023/08/31 08:36:31;;;;;;;8.53;5.93;;;24.90;48.40;;;;;;5048917;27;88012;-58
2023/08/31 08:39:01;;;;;;;8.07;5.80;;;24.90;48.40;;;;;;5065925;27;89634;-58
2023/08/31 08:41:29;;;;;;;7.43;5.50;;;24.90;48.40;;;;;;5040511;28;89084;-58
2023/08/31 08:43:59;;;;;;;9.73;5.20;;;24.90;48.40;;;;;;5043111;27;89062;-58
2023/08/31 08:46:27;;;;;;;10.20;5.60;;;24.90;48.40;;;;;;5061809;27;87440;-58
2023/08/31 08:48:55;;;;;;;10.17;5.90;;;24.90;48.40;;;;;;5054061;27;89671;-58
2023/08/31 08:51:24;;;;;;;8.30;5.57;;;24.90;48.40;;;;;;5040878;28;88018;-58
2023/08/31 08:53:52;;;;;;;9.17;5.50;;;24.90;48.40;;;;;;5041626;28;88917;-58
2023/08/31 08:56:21;;;;;;;5.50;4.43;;;24.90;48.40;;;;;;5041491;28;87818;-58
2023/08/31 08:58:49;;;;;;;7.77;5.33;;;24.90;48.40;;;;;;5046073;27;89719;-58
2023/08/31 09:01:18;;;;;;;7.63;4.70;;;24.90;48.40;;;;;;5041701;27;89046;-58
2023/08/31 09:03:46;;;;;;;6.83;4.47;;;24.90;48.30;;;;;;5040558;27;89728;-58
2023/08/31 09:06:14;;;;;;;8.97;4.47;;;25.00;48.40;;;;;;5041248;28;87639;-57
2023/08/31 09:08:42;;;;;;;5.83;4.23;;;25.00;48.40;;;;;;5041446;27;89580;-58
2023/08/31 09:11:10;;;;;;;6.33;4.03;;;25.00;48.40;;;;;;5049666;27;87868;-58
2023/08/31 09:13:40;;;;;;;4.73;3.77;;;25.00;48.40;;;;;;5061011;27;88800;-58
2023/08/31 09:16:08;;;;;;;6.57;4.30;;;25.00;48.40;;;;;;5061629;27;87574;-58
2023/08/31 09:18:36;;;;;;;5.97;4.00;;;25.00;48.40;;;;;;5051576;27;87450;-58
2023/08/31 09:21:04;;;;;;;5.30;3.80;;;25.00;48.40;;;;;;5041204;27;89116;-58
2023/08/31 09:23:33;;;;;;;4.60;3.77;;;25.00;48.30;;;;;;5040907;28;88818;-58
2023/08/31 09:26:01;;;;;;;5.40;3.90;;;25.10;48.40;;;;;;5040051;28;88229;-58
2023/08/31 09:28:30;;;;;;;6.77;3.60;;;25.10;48.30;;;;;;5043558;27;89630;-58
2023/08/31 09:31:05;;;;;;;7.13;3.70;;;25.10;48.30;;;;;;5061713;27;89194;-58
2023/08/31 09:33:34;;;;;;;5.83;3.07;;;25.10;48.40;;;;;;5061330;27;88727;-58
2023/08/31 09:36:03;;;;;;;3.87;2.83;;;25.10;48.30;;;;;;5048092;27;87339;-58
2023/08/31 09:38:32;;;;;;;3.70;3.27;;;25.10;48.30;;;;;;5040365;28;88489;-58
2023/08/31 09:41:05;;;;;;;5.33;3.00;;;25.10;48.30;;;;;;5040104;28;89087;-58
2023/08/31 09:43:33;;;;;;;5.10;3.17;;;25.20;48.30;;;;;;5039984;28;88875;-58
2023/08/31 09:46:01;;;;;;;5.20;3.00;;;25.20;48.30;;;;;;5039948;28;87634;-58
2023/08/31 09:48:31;;;;;;;3.37;2.67;;;25.20;48.30;;;;;;5040322;28;88660;-58
2023/08/31 09:50:59;;;;;;;4.20;2.63;;;25.20;48.30;;;;;;5050777;27;90111;-58
2023/08/31 09:53:27;;;;;;;3.17;2.83;;;25.20;48.30;;;;;;5043407;27;89410;-58
2023/08/31 09:55:57;;;;;;;4.57;2.60;;;25.20;48.30;;;;;;5040750;28;87794;-58
2023/08/31 09:58:25;;;;;;;3.27;2.33;;;25.20;48.30;;;;;;5040495;28;89691;-59
2023/08/31 10:00:53;;;;;;;3.77;2.57;;;25.20;48.20;;;;;;5040679;28;87771;-58
2023/08/31 10:03:22;;;;;;;3.40;3.03;;;25.20;48.20;;;;;;5039387;28;87490;-58
2023/08/31 10:05:51;;;;;;;4.43;2.13;;;25.20;48.20;;;;;;5049741;27;87168;-58
2023/08/31 10:08:19;;;;;;;3.93;2.90;;;25.20;48.20;;;;;;5053019;27;89730;-58
2023/08/31 10:10:48;;;;;;;5.33;2.70;;;25.30;48.30;;;;;;5053658;27;87701;-58
2023/08/31 10:13:16;;;;;;;4.13;2.10;;;25.30;48.30;;;;;;5060187;27;88007;-58
2023/08/31 10:15:44;;;;;;;3.03;2.27;;;25.30;48.30;;;;;;5060331;27;87815;-58
2023/08/31 10:18:12;;;;;;;3.17;2.00;;;25.30;48.30;;;;;;5060568;27;89855;-58
2023/08/31 10:20:43;;;;;;;2.57;2.10;;;25.30;48.30;;;;;;5060338;27;88065;-59
2023/08/31 10:23:13;;;;;;;4.00;2.50;;;25.30;48.30;;;;;;5060155;27;87722;-59
2023/08/31 10:26:00;;;;;;;2.33;1.70;;;25.30;48.20;;;;;;5055432;27;89163;-58
2023/08/31 10:28:28;;;;;;;2.43;2.03;;;25.30;48.20;;;;;;5041829;27;89673;-58
2023/08/31 10:31:03;;;;;;;2.70;1.77;;;25.30;48.80;;;;;;5039592;28;89002;-58
2023/08/31 10:33:32;;;;;;;4.07;1.90;;;25.30;48.20;;;;;;5040031;28;87477;-58
2023/08/31 10:36:00;;;;;;;2.40;2.03;;;25.30;48.20;;;;;;5041810;27;87881;-56
2023/08/31 10:38:31;;;;;;;2.00;1.80;;;25.30;48.20;;;;;;5059660;27;89680;-63
2023/08/31 10:41:03;;;;;;;2.07;1.80;;;25.30;48.20;;;;;;5058789;27;89976;-62
2023/08/31 10:43:48;;;;;;;1.87;1.40;;;25.30;48.10;;;;;;5056483;27;89747;-64
2023/08/31 10:46:28;;;;;;;2.80;1.43;;;25.30;48.00;;;;;;5059820;27;87570;-62
2023/08/31 10:48:57;;;;;;;4.40;1.70;;;25.40;48.00;;;;;;5059766;27;89799;-62
2023/08/31 10:51:26;;;;;;;2.83;1.30;;;25.40;47.90;;;;;;5059197;27;88854;-73
2023/08/31 10:54:07;;;;;;;1.60;1.00;;;25.50;47.90;;;;;;5059888;27;88880;-60
2023/08/31 10:56:36;;;;;;;5.10;1.33;;;25.60;47.80;;;;;;5061936;27;87539;-60
2023/08/31 10:59:05;;;;;;;2.53;1.80;;;25.80;48.30;;;;;;5059446;27;88912;-60
2023/08/31 11:01:54;;;;;;;1.43;1.10;;;25.90;47.60;;;;;;5043193;27;87261;-60
2023/08/31 11:04:24;;;;;;;3.93;1.37;;;26.10;47.60;;;;;;5053433;27;91858;-73
2023/08/31 11:07:14;;;;;;;2.07;1.60;;;26.30;47.50;;;;;;5051612;27;88447;-61
2023/08/31 11:10:32;;;;;;;2.80;1.50;;;26.40;47.40;;;;;;5061382;27;89614;-59
2023/08/31 11:13:03;;;;;;;1.30;0.90;;;26.40;47.20;;;;;;5032586;27;89148;-60
2023/08/31 11:15:33;;;;;;;1.33;0.87;;;26.40;47.00;;;;;;5062131;27;89055;-60
2023/08/31 11:18:01;;;;;;;1.43;1.10;;;26.40;46.90;;;;;;5059010;27;87583;-58
2023/08/31 11:20:31;;;;;;;0.87;0.87;;;26.40;46.80;;;;;;5062037;27;89655;-60
2023/08/31 11:22:59;;;;;;;5.10;1.17;;;26.40;46.70;;;;;;5062946;27;89186;-60
2023/08/31 11:25:27;;;;;;;1.20;1.10;;;26.40;46.60;;;;;;5052811;27;89002;-59
2023/08/31 11:27:56;;;;;;;4.83;1.30;;;26.40;46.60;;;;;;5063144;27;87294;-59
2023/08/31 11:30:26;;;;;;;1.50;1.10;;;26.30;46.50;;;;;;5062692;27;89575;-60
2023/08/31 11:32:55;;;;;;;1.70;1.07;;;26.30;46.40;;;;;;5062000;27;88982;-59
2023/08/31 11:35:23;;;;;;;1.40;1.27;;;26.30;46.40;;;;;;5046239;27;89727;-60
2023/08/31 11:37:52;;;;;;;1.10;0.90;;;26.30;46.30;;;;;;5043204;28;87451;-59
2023/08/31 11:40:21;;;;;;;2.00;1.07;;;26.20;46.20;;;;;;5042113;28;89743;-58
2023/08/31 11:42:49;;;;;;;1.00;0.90;;;26.20;46.10;;;;;;5042070;28;89168;-58
2023/08/31 11:45:18;;;;;;;0.97;0.80;;;26.20;46.00;;;;;;5042136;28;87467;-59
2023/08/31 11:47:47;;;;;;;0.97;0.70;;;26.20;46.00;;;;;;5060725;27;87527;-61
2023/08/31 11:50:15;;;;;;;2.10;1.03;;;26.20;45.80;;;;;;5058852;27;88706;-61
2023/08/31 11:52:44;;;;;;;0.77;0.67;;;26.20;45.70;;;;;;5058113;27;88798;-60
2023/08/31 11:55:13;;;;;;;0.60;0.53;;;26.10;45.70;;;;;;5057766;27;88847;-58
2023/08/31 11:57:41;;;;;;;0.73;0.73;;;26.10;45.60;;;;;;5062272;27;88000;-59
2023/08/31 12:00:11;;;;;;;1.60;0.80;;;26.10;45.60;;;;;;5062821;27;89822;-58
2023/08/31 12:03:36;;;;;;;1.40;1.10;;;26.10;45.60;;;;;;5059301;27;88944;-58
2023/08/31 12:06:19;;;;;;;2.63;1.13;;;26.10;45.60;;;;;;5008418;27;88086;-59
2023/08/31 12:08:49;;;;;;;2.83;0.70;;;26.10;45.60;;;;;;5062871;27;87352;-58
2023/08/31 12:11:19;;;;;;;1.43;0.90;;;26.10;45.60;;;;;;5062971;27;88518;-58
2023/08/31 12:13:47;;;;;;;1.40;0.90;;;26.10;45.60;;;;;;5063105;27;89020;-58
2023/08/31 12:16:17;;;;;;;3.13;0.73;;;26.10;45.60;;;;;;5062899;27;87769;-58
2023/08/31 12:18:46;;;;;;;0.37;0.37;;;26.10;45.60;;;;;;5062841;27;87554;-58
2023/08/31 12:21:15;;;;;;;1.13;0.70;;;26.10;45.50;;;;;;5062412;27;89829;-58
2023/08/31 12:23:44;;;;;;;1.60;0.70;;;26.10;45.50;;;;;;5061616;27;90428;-58
2023/08/31 12:26:13;;;;;;;7.13;1.30;;;26.10;45.50;;;;;;5061833;27;87585;-58
2023/08/31 12:28:41;;;;;;;7.60;1.40;;;26.10;45.40;;;;;;5062607;27;87588;-58
2023/08/31 12:31:09;;;;;;;5.67;1.83;;;26.10;45.40;;;;;;5062652;27;89629;-58
2023/08/31 12:33:38;;;;;;;7.00;1.80;;;26.10;45.40;;;;;;5062370;27;88233;-58
2023/08/31 12:36:06;;;;;;;3.77;1.60;;;26.10;45.40;;;;;;5062582;27;87554;-58
2023/08/31 12:38:34;;;;;;;3.13;1.10;;;26.10;45.40;;;;;;5062665;27;87634;-58
2023/08/31 12:41:04;;;;;;;3.63;1.53;;;26.20;45.40;;;;;;5062415;27;89581;-58
2023/08/31 12:43:32;;;;;;;4.13;1.00;;;26.20;45.40;;;;;;5061036;27;88189;-58
2023/08/31 12:46:00;;;;;;;3.87;1.07;;;26.20;45.40;;;;;;5061996;27;89005;-58
2023/08/31 12:48:29;;;;;;;1.40;1.00;;;26.20;45.40;;;;;;5062117;27;87854;-58
2023/08/31 12:50:57;;;;;;;3.37;1.23;;;26.20;45.40;;;;;;5062330;27;89553;-58
2023/08/31 12:53:25;;;;;;;4.57;1.43;;;26.30;45.50;;;;;;5061823;27;87431;-58
2023/08/31 12:55:53;;;;;;;4.17;1.20;;;26.30;45.50;;;;;;5061748;27;88882;-58